sensor_id;sensor_type;location;lat;lon;timestamp;pressure;altitude;pressure_sealevel;temperature;humidity
3444;BME280;1736;52.068;6.968;2023-02-19T00:00:54;101098.41;;;9.48;100.00
3444;BME280;1736;52.068;6.968;2023-02-19T00:03:21;101102.53;;;9.52;100.00
3444;BME280;1736;52.068;6.968;2023-02-19T00:05:49;101087.59;;;9.51;100.00
3444;BME280;1736;52.068;6.968;2023-02-19T00:08:15;101095.84;;;9.47;100.00
3444;BME280;1736;52.068;6.968;2023-02-19T00:10:42;101100.22;;;9.48;100.00
3444;BME280;1736;52.068;6.968;2023-02-19T00:13:08;101103.09;;;9.45;100.00
3444;BME280;1736;52.068;6.968;2023-02-19T00:15:35;101102.97;;;9.46;100.00
3444;BME280;1736;52.068;6.968;2023-02-19T00:18:01;101100.09;;;9.49;100.00
3444;BME280;1736;52.068;6.968;2023-02-19T00:20:28;101104.34;;;9.52;100.00
3444;BME280;1736;52.068;6.968;2023-02-19T00:22:56;101102.72;;;9.49;100.00
3444;BME280;1736;52.068;6.968;2023-02-19T00:25:23;101099.88;;;9.52;100.00
3444;BME280;1736;52.068;6.968;2023-02-19T00:27:49;101103.59;;;9.50;100.00
3444;BME280;1736;52.068;6.968;2023-02-19T00:30:16;101099.47;;;9.46;100.00
3444;BME280;1736;52.068;6.968;2023-02-19T00:32:42;101102.88;;;9.48;100.00
3444;BME280;1736;52.068;6.968;2023-02-19T00:35:09;101106.03;;;9.53;100.00
3444;BME280;1736;52.068;6.968;2023-02-19T00:37:36;101099.38;;;9.47;100.00
3444;BME280;1736;52.068;6.968;2023-02-19T00:40:04;101102.22;;;9.44;100.00
3444;BME280;1736;52.068;6.968;2023-02-19T00:42:31;101104.16;;;9.42;100.00
3444;BME280;1736;52.068;6.968;2023-02-19T00:44:57;101106.34;;;9.48;100.00
3444;BME280;1736;52.068;6.968;2023-02-19T00:47:24;101102.44;;;9.41;100.00
3444;BME280;1736;52.068;6.968;2023-02-19T00:49:51;101105.84;;;9.43;100.00
3444;BME280;1736;52.068;6.968;2023-02-19T00:52:17;101100.75;;;9.40;100.00
3444;BME280;1736;52.068;6.968;2023-02-19T00:54:44;101098.22;;;9.39;100.00
3444;BME280;1736;52.068;6.968;2023-02-19T00:57:12;101096.09;;;9.44;100.00
3444;BME280;1736;52.068;6.968;2023-02-19T00:59:38;101097.56;;;9.48;100.00
3444;BME280;1736;52.068;6.968;2023-02-19T01:02:05;101103.50;;;9.39;100.00
3444;BME280;1736;52.068;6.968;2023-02-19T01:04:31;101097.03;;;9.43;100.00
3444;BME280;1736;52.068;6.968;2023-02-19T01:06:58;101092.72;;;9.42;100.00
3444;BME280;1736;52.068;6.968;2023-02-19T01:09:25;101099.59;;;9.44;100.00
3444;BME280;1736;52.068;6.968;2023-02-19T01:11:51;101088.59;;;9.38;100.00
3444;BME280;1736;52.068;6.968;2023-02-19T01:14:19;101094.75;;;9.38;100.00
3444;BME280;1736;52.068;6.968;2023-02-19T01:16:46;101101.63;;;9.41;100.00
3444;BME280;1736;52.068;6.968;2023-02-19T01:19:12;101094.94;;;9.35;100.00
3444;BME280;1736;52.068;6.968;2023-02-19T01:21:39;101098.84;;;9.42;100.00
3444;BME280;1736;52.068;6.968;2023-02-19T01:24:06;101103.91;;;9.45;100.00
3444;BME280;1736;52.068;6.968;2023-02-19T01:26:32;101104.25;;;9.41;100.00
3444;BME280;1736;52.068;6.968;2023-02-19T01:29:00;101104.16;;;9.42;100.00
3444;BME280;1736;52.068;6.968;2023-02-19T01:31:28;101097.38;;;9.38;100.00
3444;BME280;1736;52.068;6.968;2023-02-19T01:33:57;101103.00;;;9.34;100.00
3444;BME280;1736;52.068;6.968;2023-02-19T01:36:25;101098.66;;;9.33;100.00
3444;BME280;1736;52.068;6.968;2023-02-19T01:38:52;101099.75;;;9.30;100.00
3444;BME280;1736;52.068;6.968;2023-02-19T01:41:20;101093.28;;;9.34;100.00
3444;BME280;1736;52.068;6.968;2023-02-19T01:43:59;101097.38;;;9.38;100.00
3444;BME280;1736;52.068;6.968;2023-02-19T01:46:28;101095.91;;;9.34;100.00
3444;BME280;1736;52.068;6.968;2023-02-19T01:48:57;101093.78;;;9.39;100.00
3444;BME280;1736;52.068;6.968;2023-02-19T01:51:24;101096.75;;;9.35;100.00
3444;BME280;1736;52.068;6.968;2023-02-19T01:53:54;101097.81;;;9.32;100.00
3444;BME280;1736;52.068;6.968;2023-02-19T01:56:23;101097.38;;;9.38;100.00
3444;BME280;1736;52.068;6.968;2023-02-19T01:58:51;101094.75;;;9.38;100.00
3444;BME280;1736;52.068;6.968;2023-02-19T02:01:18;101095.66;;;9.37;100.00
3444;BME280;1736;52.068;6.968;2023-02-19T02:03:48;101092.41;;;9.34;100.00
3444;BME280;1736;52.068;6.968;2023-02-19T02:06:19;101096.84;;;9.33;100.00
3444;BME280;1736;52.068;6.968;2023-02-19T02:08:48;101091.22;;;9.38;100.00
3444;BME280;1736;52.068;6.968;2023-02-19T02:11:34;101097.59;;;9.35;100.00
3444;BME280;1736;52.068;6.968;2023-02-19T02:14:02;101099.22;;;9.25;100.00
3444;BME280;1736;52.068;6.968;2023-02-19T02:16:33;101108.63;;;9.29;100.00
3444;BME280;1736;52.068;6.968;2023-02-19T02:19:16;101100.56;;;9.31;100.00
3444;BME280;1736;52.068;6.968;2023-02-19T02:22:01;101105.25;;;9.27;100.00
3444;BME280;1736;52.068;6.968;2023-02-19T02:24:46;101106.22;;;9.26;100.00
3444;BME280;1736;52.068;6.968;2023-02-19T02:30:15;101104.63;;;9.24;100.00
3444;BME280;1736;52.068;6.968;2023-02-19T02:32:47;101106.53;;;9.22;100.00
3444;BME280;1736;52.068;6.968;2023-02-19T02:35:21;101109.28;;;9.20;100.00
3444;BME280;1736;52.068;6.968;2023-02-19T02:37:49;101107.59;;;9.19;100.00
3444;BME280;1736;52.068;6.968;2023-02-19T02:40:17;101116.50;;;9.18;100.00
3444;BME280;1736;52.068;6.968;2023-02-19T02:42:44;101114.56;;;9.20;100.00
3444;BME280;1736;52.068;6.968;2023-02-19T02:45:30;101119.16;;;9.18;100.00
3444;BME280;1736;52.068;6.968;2023-02-19T02:48:03;101116.50;;;9.18;100.00
3444;BME280;1736;52.068;6.968;2023-02-19T02:50:36;101119.38;;;9.15;100.00
3444;BME280;1736;52.068;6.968;2023-02-19T02:53:08;101114.16;;;9.14;100.00
3444;BME280;1736;52.068;6.968;2023-02-19T02:55:54;101117.16;;;9.09;100.00
3444;BME280;1736;52.068;6.968;2023-02-19T02:58:23;101117.88;;;9.11;100.00
3444;BME280;1736;52.068;6.968;2023-02-19T03:00:55;101118.84;;;9.10;100.00
3444;BME280;1736;52.068;6.968;2023-02-19T03:03:42;101111.41;;;9.15;100.00
3444;BME280;1736;52.068;6.968;2023-02-19T03:06:12;101116.94;;;9.12;100.00
3444;BME280;1736;52.068;6.968;2023-02-19T03:08:44;101115.56;;;9.07;100.00
3444;BME280;1736;52.068;6.968;2023-02-19T03:11:13;101124.88;;;9.12;100.00
3444;BME280;1736;52.068;6.968;2023-02-19T03:14:01;101131.56;;;9.05;100.00
3444;BME280;1736;52.068;6.968;2023-02-19T03:16:49;101134.75;;;9.10;100.00
3444;BME280;1736;52.068;6.968;2023-02-19T03:19:33;101134.53;;;9.13;100.00
3444;BME280;1736;52.068;6.968;2023-02-19T03:22:04;101143.84;;;9.06;100.00
3444;BME280;1736;52.068;6.968;2023-02-19T03:24:36;101136.63;;;9.08;100.00
3444;BME280;1736;52.068;6.968;2023-02-19T03:27:25;101142.22;;;9.16;100.00
3444;BME280;1736;52.068;6.968;2023-02-19T03:29:56;101144.47;;;9.10;100.00
3444;BME280;1736;52.068;6.968;2023-02-19T03:32:29;101148.19;;;9.07;100.00
3444;BME280;1736;52.068;6.968;2023-02-19T03:34:59;101147.47;;;9.05;100.00
3444;BME280;1736;52.068;6.968;2023-02-19T03:37:29;101145.97;;;9.01;100.00
3444;BME280;1736;52.068;6.968;2023-02-19T03:39:58;101157.81;;;9.08;100.00
3444;BME280;1736;52.068;6.968;2023-02-19T03:42:32;101148.38;;;9.04;100.00
3444;BME280;1736;52.068;6.968;2023-02-19T03:45:10;101153.78;;;9.03;100.00
3444;BME280;1736;52.068;6.968;2023-02-19T03:47:45;101159.53;;;9.09;100.00
3444;BME280;1736;52.068;6.968;2023-02-19T03:50:18;101158.78;;;9.07;100.00
3444;BME280;1736;52.068;6.968;2023-02-19T03:52:52;101162.59;;;9.03;100.00
3444;BME280;1736;52.068;6.968;2023-02-19T03:55:28;101161.41;;;9.07;100.00
3444;BME280;1736;52.068;6.968;2023-02-19T03:58:03;101164.72;;;8.98;100.00
3444;BME280;1736;52.068;6.968;2023-02-19T04:00:38;101173.06;;;9.05;100.00
3444;BME280;1736;52.068;6.968;2023-02-19T04:03:14;101180.06;;;9.06;100.00
3444;BME280;1736;52.068;6.968;2023-02-19T04:05:44;101181.75;;;8.94;100.00
3444;BME280;1736;52.068;6.968;2023-02-19T04:08:15;101181.56;;;8.97;100.00
3444;BME280;1736;52.068;6.968;2023-02-19T04:10:44;101191.06;;;9.00;100.00
3444;BME280;1736;52.068;6.968;2023-02-19T04:13:15;101196.88;;;8.92;100.00
3444;BME280;1736;52.068;6.968;2023-02-19T04:15:44;101204.81;;;8.92;100.00
3444;BME280;1736;52.068;6.968;2023-02-19T04:18:15;101205.69;;;8.93;100.00
3444;BME280;1736;52.068;6.968;2023-02-19T04:20:45;101209.91;;;8.95;100.00
3444;BME280;1736;52.068;6.968;2023-02-19T04:23:14;101205.97;;;8.88;100.00
3444;BME280;1736;52.068;6.968;2023-02-19T04:25:44;101211.28;;;8.88;100.00
3444;BME280;1736;52.068;6.968;2023-02-19T04:28:12;101217.97;;;8.81;100.00
3444;BME280;1736;52.068;6.968;2023-02-19T04:30:40;101201.66;;;8.87;100.00
3444;BME280;1736;52.068;6.968;2023-02-19T04:33:07;101212.44;;;8.84;100.00
3444;BME280;1736;52.068;6.968;2023-02-19T04:35:35;101222.81;;;8.87;100.00
3444;BME280;1736;52.068;6.968;2023-02-19T04:38:02;101224.94;;;8.82;100.00
3444;BME280;1736;52.068;6.968;2023-02-19T04:40:28;101226.81;;;8.80;100.00
3444;BME280;1736;52.068;6.968;2023-02-19T04:42:55;101232.44;;;8.88;100.00
3444;BME280;1736;52.068;6.968;2023-02-19T04:45:21;101234.56;;;8.83;100.00
3444;BME280;1736;52.068;6.968;2023-02-19T04:47:48;101232.03;;;8.82;100.00
3444;BME280;1736;52.068;6.968;2023-02-19T04:50:14;101237.00;;;8.86;100.00
3444;BME280;1736;52.068;6.968;2023-02-19T04:52:42;101237.00;;;8.86;100.00
3444;BME280;1736;52.068;6.968;2023-02-19T04:55:09;101240.81;;;8.82;100.00
3444;BME280;1736;52.068;6.968;2023-02-19T04:57:35;101236.25;;;8.84;100.00
3444;BME280;1736;52.068;6.968;2023-02-19T05:00:03;101244.00;;;8.87;100.00
3444;BME280;1736;52.068;6.968;2023-02-19T05:02:29;101263.03;;;8.80;100.00
3444;BME280;1736;52.068;6.968;2023-02-19T05:04:56;101251.31;;;8.84;100.00
3444;BME280;1736;52.068;6.968;2023-02-19T05:07:22;101257.75;;;8.80;100.00
3444;BME280;1736;52.068;6.968;2023-02-19T05:09:50;101255.22;;;8.78;100.00
3444;BME280;1736;52.068;6.968;2023-02-19T05:12:17;101260.69;;;8.75;100.00
3444;BME280;1736;52.068;6.968;2023-02-19T05:14:43;101265.78;;;8.78;100.00
3444;BME280;1736;52.068;6.968;2023-02-19T05:17:10;101274.69;;;8.77;100.00
3444;BME280;1736;52.068;6.968;2023-02-19T05:19:36;101270.88;;;8.81;100.00
3444;BME280;1736;52.068;6.968;2023-02-19T05:22:03;101280.81;;;8.78;100.00
3444;BME280;1736;52.068;6.968;2023-02-19T05:24:29;101282.22;;;8.83;100.00
3444;BME280;1736;52.068;6.968;2023-02-19T05:26:57;101273.09;;;8.75;100.00
3444;BME280;1736;52.068;6.968;2023-02-19T05:29:24;101277.44;;;8.76;100.00
3444;BME280;1736;52.068;6.968;2023-02-19T05:31:50;101287.59;;;8.82;100.00
3444;BME280;1736;52.068;6.968;2023-02-19T05:34:17;101285.72;;;8.84;100.00
3444;BME280;1736;52.068;6.968;2023-02-19T05:36:43;101286.09;;;8.78;100.00
3444;BME280;1736;52.068;6.968;2023-02-19T05:39:10;101290.16;;;8.83;100.00
3444;BME280;1736;52.068;6.968;2023-02-19T05:41:37;101293.94;;;8.79;100.00
3444;BME280;1736;52.068;6.968;2023-02-19T05:44:05;101287.50;;;8.83;100.00
3444;BME280;1736;52.068;6.968;2023-02-19T05:46:32;101292.44;;;8.75;100.00
3444;BME280;1736;52.068;6.968;2023-02-19T05:48:58;101298.81;;;8.73;100.00
3444;BME280;1736;52.068;6.968;2023-02-19T05:51:26;101302.84;;;8.78;100.00
3444;BME280;1736;52.068;6.968;2023-02-19T05:53:53;101296.25;;;8.71;100.00
3444;BME280;1736;52.068;6.968;2023-02-19T05:56:29;101310.16;;;8.75;100.00
3444;BME280;1736;52.068;6.968;2023-02-19T05:58:56;101311.59;;;8.66;100.00
3444;BME280;1736;52.068;6.968;2023-02-19T06:01:27;101306.28;;;8.66;100.00
3444;BME280;1736;52.068;6.968;2023-02-19T06:03:54;101310.63;;;8.67;100.00
3444;BME280;1736;52.068;6.968;2023-02-19T06:06:21;101319.72;;;8.63;100.00
3444;BME280;1736;52.068;6.968;2023-02-19T06:08:48;101306.91;;;8.57;100.00
3444;BME280;1736;52.068;6.968;2023-02-19T06:11:15;101319.28;;;8.57;100.00
3444;BME280;1736;52.068;6.968;2023-02-19T06:13:42;101316.53;;;8.58;100.00
3444;BME280;1736;52.068;6.968;2023-02-19T06:16:09;101319.38;;;8.55;100.00
3444;BME280;1736;52.068;6.968;2023-02-19T06:18:37;101325.81;;;8.51;100.00
3444;BME280;1736;52.068;6.968;2023-02-19T06:21:06;101333.97;;;8.48;100.00
3444;BME280;1736;52.068;6.968;2023-02-19T06:23:33;101341.13;;;8.46;100.00
3444;BME280;1736;52.068;6.968;2023-02-19T06:26:05;101342.53;;;8.52;100.00
3444;BME280;1736;52.068;6.968;2023-02-19T06:28:32;101350.38;;;8.53;100.00
3444;BME280;1736;52.068;6.968;2023-02-19T06:30:58;101348.28;;;8.58;100.00
3444;BME280;1736;52.068;6.968;2023-02-19T06:33:25;101363.19;;;8.59;100.00
3444;BME280;1736;52.068;6.968;2023-02-19T06:35:53;101362.66;;;8.54;100.00
3444;BME280;1736;52.068;6.968;2023-02-19T06:38:22;101362.47;;;8.57;100.00
3444;BME280;1736;52.068;6.968;2023-02-19T06:40:49;101369.84;;;8.52;100.00
3444;BME280;1736;52.068;6.968;2023-02-19T06:43:15;101364.56;;;8.52;100.00
3444;BME280;1736;52.068;6.968;2023-02-19T06:45:42;101377.78;;;8.52;100.00
3444;BME280;1736;52.068;6.968;2023-02-19T06:48:08;101377.88;;;8.51;100.00
3444;BME280;1736;52.068;6.968;2023-02-19T06:50:35;101394.59;;;8.51;100.00
3444;BME280;1736;52.068;6.968;2023-02-19T06:53:03;101399.88;;;8.51;100.00
3444;BME280;1736;52.068;6.968;2023-02-19T06:55:29;101403.38;;;8.52;100.00
3444;BME280;1736;52.068;6.968;2023-02-19T06:57:56;101414.25;;;8.47;100.00
3444;BME280;1736;52.068;6.968;2023-02-19T07:00:23;101411.41;;;8.50;100.00
3444;BME280;1736;52.068;6.968;2023-02-19T07:02:49;101414.25;;;8.47;100.00
3444;BME280;1736;52.068;6.968;2023-02-19T07:05:20;101413.59;;;8.44;100.00
3444;BME280;1736;52.068;6.968;2023-02-19T07:07:47;101414.25;;;8.47;100.00
3444;BME280;1736;52.068;6.968;2023-02-19T07:10:15;101418.59;;;8.48;100.00
3444;BME280;1736;52.068;6.968;2023-02-19T07:12:42;101424.63;;;8.50;100.00
3444;BME280;1736;52.068;6.968;2023-02-19T07:15:09;101430.09;;;8.47;100.00
3444;BME280;1736;52.068;6.968;2023-02-19T07:17:35;101438.72;;;8.51;100.00
3444;BME280;1736;52.068;6.968;2023-02-19T07:20:03;101441.81;;;8.43;100.00
3444;BME280;1736;52.068;6.968;2023-02-19T07:22:30;101442.41;;;8.48;100.00
3444;BME280;1736;52.068;6.968;2023-02-19T07:24:57;101440.41;;;8.52;100.00
3444;BME280;1736;52.068;6.968;2023-02-19T07:27:24;101444.84;;;8.51;100.00
3444;BME280;1736;52.068;6.968;2023-02-19T07:29:51;101450.91;;;8.53;100.00
3444;BME280;1736;52.068;6.968;2023-02-19T07:32:17;101444.09;;;8.49;100.00
3444;BME280;1736;52.068;6.968;2023-02-19T07:34:44;101450.13;;;8.51;100.00
3444;BME280;1736;52.068;6.968;2023-02-19T07:37:10;101452.78;;;8.51;100.00
3444;BME280;1736;52.068;6.968;2023-02-19T07:39:37;101455.16;;;8.56;100.00
3444;BME280;1736;52.068;6.968;2023-02-19T07:42:04;101455.88;;;8.58;100.00
3444;BME280;1736;52.068;6.968;2023-02-19T07:44:31;101469.50;;;8.52;100.00
3444;BME280;1736;52.068;6.968;2023-02-19T07:46:58;101471.88;;;8.56;100.00
3444;BME280;1736;52.068;6.968;2023-02-19T07:49:25;101487.53;;;8.59;100.00
3444;BME280;1736;52.068;6.968;2023-02-19T07:51:51;101481.41;;;8.59;100.00
3444;BME280;1736;52.068;6.968;2023-02-19T07:54:18;101492.38;;;8.53;100.00
3444;BME280;1736;52.068;6.968;2023-02-19T07:56:44;101496.16;;;8.49;100.00
3444;BME280;1736;52.068;6.968;2023-02-19T07:59:10;101489.91;;;8.50;100.00
3444;BME280;1736;52.068;6.968;2023-02-19T08:01:38;101497.19;;;8.46;100.00
3444;BME280;1736;52.068;6.968;2023-02-19T08:04:22;101499.09;;;8.44;100.00
3444;BME280;1736;52.068;6.968;2023-02-19T08:06:49;101498.69;;;8.50;100.00
3444;BME280;1736;52.068;6.968;2023-02-19T08:09:15;101500.22;;;8.40;100.00
3444;BME280;1736;52.068;6.968;2023-02-19T08:11:42;101501.25;;;8.52;100.00
3444;BME280;1736;52.068;6.968;2023-02-19T08:14:26;101502.66;;;8.43;100.00
3444;BME280;1736;52.068;6.968;2023-02-19T08:16:54;101512.41;;;8.43;100.00
3444;BME280;1736;52.068;6.968;2023-02-19T08:19:21;101517.63;;;8.44;100.00
3444;BME280;1736;52.068;6.968;2023-02-19T08:21:48;101513.63;;;8.37;100.00
3444;BME280;1736;52.068;6.968;2023-02-19T08:24:15;101526.28;;;8.32;100.00
3444;BME280;1736;52.068;6.968;2023-02-19T08:26:41;101524.31;;;8.36;100.00
3444;BME280;1736;52.068;6.968;2023-02-19T08:29:08;101522.88;;;8.30;100.00
3444;BME280;1736;52.068;6.968;2023-02-19T08:31:34;101533.47;;;8.30;100.00
3444;BME280;1736;52.068;6.968;2023-02-19T08:34:02;101540.16;;;8.36;100.00
3444;BME280;1736;52.068;6.968;2023-02-19T08:36:29;101532.81;;;8.27;100.00
3444;BME280;1736;52.068;6.968;2023-02-19T08:38:56;101546.19;;;8.24;100.00
3444;BME280;1736;52.068;6.968;2023-02-19T08:41:22;101543.66;;;8.22;100.00
3444;BME280;1736;52.068;6.968;2023-02-19T08:43:49;101567.72;;;8.18;100.00
3444;BME280;1736;52.068;6.968;2023-02-19T08:46:15;101582.59;;;7.60;100.00
3444;BME280;1736;52.068;6.968;2023-02-19T08:48:42;101581.19;;;7.23;100.00
3444;BME280;1736;52.068;6.968;2023-02-19T08:51:10;101588.78;;;7.14;100.00
3444;BME280;1736;52.068;6.968;2023-02-19T08:53:39;101594.56;;;7.20;100.00
3444;BME280;1736;52.068;6.968;2023-02-19T08:56:06;101600.44;;;7.25;100.00
3444;BME280;1736;52.068;6.968;2023-02-19T08:58:33;101610.03;;;6.95;100.00
3444;BME280;1736;52.068;6.968;2023-02-19T09:01:00;101627.72;;;6.93;100.00
3444;BME280;1736;52.068;6.968;2023-02-19T09:03:26;101618.53;;;6.85;100.00
3444;BME280;1736;52.068;6.968;2023-02-19T09:05:53;101631.81;;;6.83;100.00
3444;BME280;1736;52.068;6.968;2023-02-19T09:08:21;101634.16;;;6.72;100.00
3444;BME280;1736;52.068;6.968;2023-02-19T09:10:56;101639.50;;;6.71;100.00
3444;BME280;1736;52.068;6.968;2023-02-19T09:13:23;101634.34;;;6.69;100.00
3444;BME280;1736;52.068;6.968;2023-02-19T09:15:49;101647.59;;;6.68;100.00
3444;BME280;1736;52.068;6.968;2023-02-19T09:18:16;101654.31;;;6.73;100.00
3444;BME280;1736;52.068;6.968;2023-02-19T09:20:42;101650.44;;;6.80;100.00
3444;BME280;1736;52.068;6.968;2023-02-19T09:23:09;101656.31;;;6.85;100.00
3444;BME280;1736;52.068;6.968;2023-02-19T09:25:37;101654.25;;;7.07;100.00
3444;BME280;1736;52.068;6.968;2023-02-19T09:28:03;101650.06;;;7.03;100.00
3444;BME280;1736;52.068;6.968;2023-02-19T09:30:30;101664.00;;;7.05;100.00
3444;BME280;1736;52.068;6.968;2023-02-19T09:32:56;101666.78;;;7.19;100.00
3444;BME280;1736;52.068;6.968;2023-02-19T09:35:23;101683.63;;;7.17;100.00
3444;BME280;1736;52.068;6.968;2023-02-19T09:37:50;101682.69;;;7.02;100.00
3444;BME280;1736;52.068;6.968;2023-02-19T09:40:16;101684.66;;;7.14;100.00
3444;BME280;1736;52.068;6.968;2023-02-19T09:42:48;101688.41;;;7.10;100.00
3444;BME280;1736;52.068;6.968;2023-02-19T09:45:21;101694.88;;;7.20;100.00
3444;BME280;1736;52.068;6.968;2023-02-19T09:47:52;101715.84;;;7.23;100.00
3444;BME280;1736;52.068;6.968;2023-02-19T09:50:21;101717.63;;;7.23;100.00
3444;BME280;1736;52.068;6.968;2023-02-19T09:52:50;101717.09;;;7.16;100.00
3444;BME280;1736;52.068;6.968;2023-02-19T09:55:24;101739.91;;;7.17;100.00
3444;BME280;1736;52.068;6.968;2023-02-19T09:57:56;101742.09;;;7.26;100.00
3444;BME280;1736;52.068;6.968;2023-02-19T10:00:25;101747.03;;;7.32;100.00
3444;BME280;1736;52.068;6.968;2023-02-19T10:02:56;101755.75;;;7.17;100.00
3444;BME280;1736;52.068;6.968;2023-02-19T10:05:26;101745.94;;;7.04;100.00
3444;BME280;1736;52.068;6.968;2023-02-19T10:07:53;101768.97;;;7.00;100.00
3444;BME280;1736;52.068;6.968;2023-02-19T10:10:25;101763.69;;;7.00;100.00
3444;BME280;1736;52.068;6.968;2023-02-19T10:12:58;101770.69;;;7.18;100.00
3444;BME280;1736;52.068;6.968;2023-02-19T10:15:35;101761.16;;;7.31;100.00
3444;BME280;1736;52.068;6.968;2023-02-19T10:18:03;101779.75;;;7.45;100.00
3444;BME280;1736;52.068;6.968;2023-02-19T10:20:31;101782.59;;;7.58;100.00
3444;BME280;1736;52.068;6.968;2023-02-19T10:23:00;101784.25;;;7.11;100.00
3444;BME280;1736;52.068;6.968;2023-02-19T10:25:28;101769.97;;;7.15;100.00
3444;BME280;1736;52.068;6.968;2023-02-19T10:27:58;101767.72;;;7.07;100.00
3444;BME280;1736;52.068;6.968;2023-02-19T10:30:28;101782.00;;;7.20;100.00
3444;BME280;1736;52.068;6.968;2023-02-19T10:33:01;101794.97;;;7.25;100.00
3444;BME280;1736;52.068;6.968;2023-02-19T10:35:29;101794.28;;;7.04;100.00
3444;BME280;1736;52.068;6.968;2023-02-19T10:38:00;101805.84;;;7.02;100.00
3444;BME280;1736;52.068;6.968;2023-02-19T10:40:28;101809.81;;;7.10;100.00
3444;BME280;1736;52.068;6.968;2023-02-19T10:42:56;101804.97;;;7.01;100.00
3444;BME280;1736;52.068;6.968;2023-02-19T10:45:31;101811.25;;;7.16;100.00
3444;BME280;1736;52.068;6.968;2023-02-19T10:47:59;101817.72;;;7.10;100.00
3444;BME280;1736;52.068;6.968;2023-02-19T10:50:29;101825.81;;;7.07;100.00
3444;BME280;1736;52.068;6.968;2023-02-19T10:52:58;101822.84;;;7.13;100.00
3444;BME280;1736;52.068;6.968;2023-02-19T10:55:28;101817.03;;;7.07;100.00
3444;BME280;1736;52.068;6.968;2023-02-19T10:57:55;101822.28;;;7.24;100.00
3444;BME280;1736;52.068;6.968;2023-02-19T11:00:23;101823.09;;;7.09;100.00
3444;BME280;1736;52.068;6.968;2023-02-19T11:03:12;101828.91;;;7.15;100.00
3444;BME280;1736;52.068;6.968;2023-02-19T11:05:53;101842.25;;;6.95;100.00
3444;BME280;1736;52.068;6.968;2023-02-19T11:08:23;101839.91;;;6.89;100.00
3444;BME280;1736;52.068;6.968;2023-02-19T11:10:50;101834.47;;;7.09;100.00
3444;BME280;1736;52.068;6.968;2023-02-19T11:13:23;101839.94;;;7.06;100.00
3444;BME280;1736;52.068;6.968;2023-02-19T11:15:53;101845.03;;;7.09;100.00
3444;BME280;1736;52.068;6.968;2023-02-19T11:18:23;101846.44;;;7.16;100.00
3444;BME280;1736;52.068;6.968;2023-02-19T11:20:52;101831.19;;;7.38;100.00
3444;BME280;1736;52.068;6.968;2023-02-19T11:23:23;101832.34;;;7.50;100.00
3444;BME280;1736;52.068;6.968;2023-02-19T11:25:52;101838.91;;;7.58;100.00
3444;BME280;1736;52.068;6.968;2023-02-19T11:28:25;101837.81;;;7.62;100.00
3444;BME280;1736;52.068;6.968;2023-02-19T11:30:53;101837.84;;;7.45;100.00
3444;BME280;1736;52.068;6.968;2023-02-19T11:33:24;101843.81;;;7.66;100.00
3444;BME280;1736;52.068;6.968;2023-02-19T11:35:57;101838.91;;;7.58;100.00
3444;BME280;1736;52.068;6.968;2023-02-19T11:38:25;101836.19;;;7.60;100.00
3444;BME280;1736;52.068;6.968;2023-02-19T11:40:59;101824.72;;;7.61;100.00
3444;BME280;1736;52.068;6.968;2023-02-19T11:43:42;101827.88;;;7.67;100.00
3444;BME280;1736;52.068;6.968;2023-02-19T11:46:18;101826.91;;;7.53;100.00
3444;BME280;1736;52.068;6.968;2023-02-19T11:49:00;101830.09;;;7.42;100.00
3444;BME280;1736;52.068;6.968;2023-02-19T11:51:41;101831.63;;;7.63;100.00
3444;BME280;1736;52.068;6.968;2023-02-19T11:54:31;101840.09;;;7.85;100.00
3444;BME280;1736;52.068;6.968;2023-02-19T11:57:08;101844.97;;;8.08;100.00
3444;BME280;1736;52.068;6.968;2023-02-19T11:59:44;101844.63;;;7.83;100.00
3444;BME280;1736;52.068;6.968;2023-02-19T12:02:27;101854.34;;;7.98;100.00
3444;BME280;1736;52.068;6.968;2023-02-19T12:08:35;101855.47;;;8.10;100.00
3444;BME280;1736;52.068;6.968;2023-02-19T12:11:18;101854.69;;;7.92;100.00
3444;BME280;1736;52.068;6.968;2023-02-19T12:14:03;101850.94;;;7.96;100.00
3444;BME280;1736;52.068;6.968;2023-02-19T12:16:42;101853.50;;;7.98;100.00
3444;BME280;1736;52.068;6.968;2023-02-19T12:19:26;101866.25;;;8.22;100.00
3444;BME280;1736;52.068;6.968;2023-02-19T12:22:15;101863.78;;;8.35;100.00
3444;BME280;1736;52.068;6.968;2023-02-19T12:25:03;101858.22;;;8.39;100.00
3444;BME280;1736;52.068;6.968;2023-02-19T12:27:48;101856.00;;;8.32;100.00
3444;BME280;1736;52.068;6.968;2023-02-19T12:33:59;101855.00;;;8.79;100.00
3444;BME280;1736;52.068;6.968;2023-02-19T12:40:01;101855.56;;;8.55;100.00
3444;BME280;1736;52.068;6.968;2023-02-19T12:42:50;101863.25;;;8.44;100.00
3444;BME280;1736;52.068;6.968;2023-02-19T12:45:25;101870.25;;;8.29;100.00
3444;BME280;1736;52.068;6.968;2023-02-19T12:47:58;101868.88;;;8.38;100.00
3444;BME280;1736;52.068;6.968;2023-02-19T12:50:27;101865.63;;;8.33;100.00
3444;BME280;1736;52.068;6.968;2023-02-19T12:52:58;101868.19;;;8.34;100.00
3444;BME280;1736;52.068;6.968;2023-02-19T12:55:31;101865.13;;;8.42;100.00
3444;BME280;1736;52.068;6.968;2023-02-19T12:58:01;101865.41;;;8.22;100.00
3444;BME280;1736;52.068;6.968;2023-02-19T13:00:32;101865.69;;;8.16;100.00
3444;BME280;1736;52.068;6.968;2023-02-19T13:03:04;101863.06;;;8.16;100.00
3444;BME280;1736;52.068;6.968;2023-02-19T13:05:41;101870.56;;;8.08;100.00
3444;BME280;1736;52.068;6.968;2023-02-19T13:08:14;101868.03;;;8.37;100.00
3444;BME280;1736;52.068;6.968;2023-02-19T13:10:46;101868.03;;;8.53;100.00
3444;BME280;1736;52.068;6.968;2023-02-19T13:13:19;101871.25;;;8.73;100.00
3444;BME280;1736;52.068;6.968;2023-02-19T13:15:51;101886.28;;;8.73;100.00
3444;BME280;1736;52.068;6.968;2023-02-19T13:18:21;101885.00;;;8.80;100.00
3444;BME280;1736;52.068;6.968;2023-02-19T13:20:50;101882.75;;;8.72;100.00
3444;BME280;1736;52.068;6.968;2023-02-19T13:23:21;101887.25;;;8.56;100.00
3444;BME280;1736;52.068;6.968;2023-02-19T13:26:22;101885.19;;;8.61;100.00
3444;BME280;1736;52.068;6.968;2023-02-19T13:29:02;101889.00;;;8.71;100.00
3444;BME280;1736;52.068;6.968;2023-02-19T13:34:40;101893.28;;;8.58;100.00
3444;BME280;1736;52.068;6.968;2023-02-19T13:37:07;101902.34;;;8.54;100.00
3444;BME280;1736;52.068;6.968;2023-02-19T13:39:35;101900.06;;;8.48;100.00
3444;BME280;1736;52.068;6.968;2023-02-19T13:42:04;101912.69;;;8.59;100.00